sensor_id;sensor_type;location;lat;lon;timestamp;pressure;altitude;pressure_sealevel;temperature;humidity
22311;BME280;11323;49.610;11.016;2024-02-21T00:04:30;99137.97;;;9.48;71.14
22311;BME280;11323;49.610;11.016;2024-02-21T00:09:34;99135.91;;;9.50;71.38
22311;BME280;11323;49.610;11.016;2024-02-21T00:14:35;99130.97;;;9.47;71.16
22311;BME280;11323;49.610;11.016;2024-02-21T00:19:36;99126.44;;;9.41;71.62
22311;BME280;11323;49.610;11.016;2024-02-21T00:24:37;99119.88;;;9.37;71.39
22311;BME280;11323;49.610;11.016;2024-02-21T00:29:38;99117.19;;;9.37;71.67
22311;BME280;11323;49.610;11.016;2024-02-21T00:34:38;99107.94;;;9.33;71.68
22311;BME280;11323;49.610;11.016;2024-02-21T00:39:39;99117.03;;;9.32;71.31
22311;BME280;11323;49.610;11.016;2024-02-21T00:44:40;99117.84;;;9.26;71.71
22311;BME280;11323;49.610;11.016;2024-02-21T00:49:41;99099.75;;;9.22;71.97
22311;BME280;11323;49.610;11.016;2024-02-21T00:54:41;99100.19;;;9.25;71.80
22311;BME280;11323;49.610;11.016;2024-02-21T00:59:45;99090.50;;;9.24;71.50
22311;BME280;11323;49.610;11.016;2024-02-21T01:04:46;99080.84;;;9.23;71.64
22311;BME280;11323;49.610;11.016;2024-02-21T01:09:47;99080.84;;;9.23;71.84
22311;BME280;11323;49.610;11.016;2024-02-21T01:14:47;99075.50;;;9.23;71.69
22311;BME280;11323;49.610;11.016;2024-02-21T01:19:49;99067.66;;;9.28;71.54
22311;BME280;11323;49.610;11.016;2024-02-21T01:24:50;99054.50;;;9.27;71.53
22311;BME280;11323;49.610;11.016;2024-02-21T01:29:51;99056.34;;;9.33;71.65
22311;BME280;11323;49.610;11.016;2024-02-21T01:34:52;99064.56;;;9.31;71.28
22311;BME280;11323;49.610;11.016;2024-02-21T01:39:56;99053.47;;;9.28;71.36
22311;BME280;11323;49.610;11.016;2024-02-21T01:44:57;99040.94;;;9.28;71.70
22311;BME280;11323;49.610;11.016;2024-02-21T01:49:57;99034.34;;;9.24;71.89
22311;BME280;11323;49.610;11.016;2024-02-21T01:54:58;99032.75;;;9.17;71.35
22311;BME280;11323;49.610;11.016;2024-02-21T01:59:59;99024.72;;;9.10;72.05
22311;BME280;11323;49.610;11.016;2024-02-21T02:05:01;99032.53;;;9.18;72.11
22311;BME280;11323;49.610;11.016;2024-02-21T02:10:02;99028.00;;;9.12;71.49
22311;BME280;11323;49.610;11.016;2024-02-21T02:15:03;99028.44;;;9.09;71.71
22311;BME280;11323;49.610;11.016;2024-02-21T02:20:10;99026.59;;;9.03;72.37
22311;BME280;11323;49.610;11.016;2024-02-21T02:25:14;99019.81;;;9.07;71.71
22311;BME280;11323;49.610;11.016;2024-02-21T02:30:15;99011.38;;;9.10;72.03
22311;BME280;11323;49.610;11.016;2024-02-21T02:35:19;98994.94;;;9.06;71.60
22311;BME280;11323;49.610;11.016;2024-02-21T02:40:20;98989.97;;;9.10;71.56
22311;BME280;11323;49.610;11.016;2024-02-21T02:45:25;98974.78;;;9.04;71.67
22311;BME280;11323;49.610;11.016;2024-02-21T02:50:30;98974.44;;;8.94;71.60
22311;BME280;11323;49.610;11.016;2024-02-21T02:55:34;98974.59;;;8.99;72.39
22311;BME280;11323;49.610;11.016;2024-02-21T03:00:39;98956.06;;;9.04;72.17
22311;BME280;11323;49.610;11.016;2024-02-21T03:05:42;98966.75;;;9.04;71.64
22311;BME280;11323;49.610;11.016;2024-02-21T03:10:43;98964.31;;;9.02;71.81
22311;BME280;11323;49.610;11.016;2024-02-21T03:15:44;98964.50;;;9.07;71.64
22311;BME280;11323;49.610;11.016;2024-02-21T03:20:45;98953.81;;;9.07;71.72
22311;BME280;11323;49.610;11.016;2024-02-21T03:25:46;98944.78;;;9.02;71.72
22311;BME280;11323;49.610;11.016;2024-02-21T03:30:47;98933.75;;;8.85;72.46
22311;BME280;11323;49.610;11.016;2024-02-21T03:35:50;98916.88;;;8.85;72.51
22311;BME280;11323;49.610;11.016;2024-02-21T03:40:51;98928.00;;;8.82;72.18
22311;BME280;11323;49.610;11.016;2024-02-21T03:45:52;98929.22;;;8.86;72.55
22311;BME280;11323;49.610;11.016;2024-02-21T03:50:53;98926.34;;;8.87;71.98
22311;BME280;11323;49.610;11.016;2024-02-21T03:55:54;98924.88;;;8.91;72.49
22311;BME280;11323;49.610;11.016;2024-02-21T04:00:55;98928.00;;;8.82;72.21
22311;BME280;11323;49.610;11.016;2024-02-21T04:05:59;98925.50;;;8.87;72.41
22311;BME280;11323;49.610;11.016;2024-02-21T04:11:00;98917.56;;;8.74;72.84
22311;BME280;11323;49.610;11.016;2024-02-21T04:16:01;98930.25;;;8.85;72.54
22311;BME280;11323;49.610;11.016;2024-02-21T04:21:02;98932.69;;;8.93;72.91
22311;BME280;11323;49.610;11.016;2024-02-21T04:26:03;98934.97;;;8.96;72.46
22311;BME280;11323;49.610;11.016;2024-02-21T04:31:07;98925.72;;;8.92;72.61
22311;BME280;11323;49.610;11.016;2024-02-21T04:36:08;98914.81;;;8.87;72.93
22311;BME280;11323;49.610;11.016;2024-02-21T04:41:09;98899.63;;;8.87;72.98
22311;BME280;11323;49.610;11.016;2024-02-21T04:46:10;98901.66;;;8.92;73.06
22311;BME280;11323;49.610;11.016;2024-02-21T04:51:12;98901.66;;;8.92;72.50
22311;BME280;11323;49.610;11.016;2024-02-21T04:56:14;98872.56;;;8.71;73.56
22311;BME280;11323;49.610;11.016;2024-02-21T05:01:15;98871.97;;;8.69;73.26
22311;BME280;11323;49.610;11.016;2024-02-21T05:06:18;98867.00;;;8.72;73.50
22311;BME280;11323;49.610;11.016;2024-02-21T05:11:19;98856.16;;;8.61;73.77
22311;BME280;11323;49.610;11.016;2024-02-21T05:16:23;98856.78;;;8.63;73.53
22311;BME280;11323;49.610;11.016;2024-02-21T05:21:24;98857.19;;;8.60;73.53
22311;BME280;11323;49.610;11.016;2024-02-21T05:26:28;98850.44;;;8.57;74.00
22311;BME280;11323;49.610;11.016;2024-02-21T05:36:54;98858.28;;;8.46;73.96
22311;BME280;11323;49.610;11.016;2024-02-21T05:41:55;98854.38;;;8.42;74.42
22311;BME280;11323;49.610;11.016;2024-02-21T05:46:59;98857.84;;;8.42;74.18
22311;BME280;11323;49.610;11.016;2024-02-21T05:52:02;98843.50;;;8.37;74.11
22311;BME280;11323;49.610;11.016;2024-02-21T05:57:07;98842.88;;;8.35;73.53
22311;BME280;11323;49.610;11.016;2024-02-21T06:02:08;98836.75;;;8.28;73.98
22311;BME280;11323;49.610;11.016;2024-02-21T06:07:09;98834.91;;;8.21;74.35
22311;BME280;11323;49.610;11.016;2024-02-21T06:12:12;98842.72;;;8.16;73.71
22311;BME280;11323;49.610;11.016;2024-02-21T06:17:14;98838.44;;;8.09;74.07
22311;BME280;11323;49.610;11.016;2024-02-21T06:22:18;98842.72;;;8.03;74.45
22311;BME280;11323;49.610;11.016;2024-02-21T06:27:18;98837.81;;;8.00;74.48
22311;BME280;11323;49.610;11.016;2024-02-21T06:32:19;98854.44;;;7.96;74.59
22311;BME280;11323;49.610;11.016;2024-02-21T06:37:20;98851.78;;;7.96;74.63
22311;BME280;11323;49.610;11.016;2024-02-21T06:42:21;98856.31;;;7.95;74.65
22311;BME280;11323;49.610;11.016;2024-02-21T06:47:26;98845.63;;;7.95;74.63
22311;BME280;11323;49.610;11.016;2024-02-21T06:52:26;98843.59;;;7.97;74.11
22311;BME280;11323;49.610;11.016;2024-02-21T06:57:30;98845.22;;;7.98;74.46
22311;BME280;11323;49.610;11.016;2024-02-21T07:02:31;98845.00;;;8.06;74.59
22311;BME280;11323;49.610;11.016;2024-02-21T07:07:32;98845.19;;;8.11;74.59
22311;BME280;11323;49.610;11.016;2024-02-21T07:12:33;98842.72;;;8.16;74.70
22311;BME280;11323;49.610;11.016;2024-02-21T07:17:41;98845.56;;;8.21;74.14
22311;BME280;11323;49.610;11.016;2024-02-21T07:22:42;98844.97;;;8.19;74.43
22311;BME280;11323;49.610;11.016;2024-02-21T07:27:57;98838.00;;;8.18;74.80
22311;BME280;11323;49.610;11.016;2024-02-21T07:33:35;98824.63;;;8.32;74.03
22311;BME280;11323;49.610;11.016;2024-02-21T07:39:09;98828.91;;;8.46;74.08
22311;BME280;11323;49.610;11.016;2024-02-21T07:44:09;98823.06;;;8.62;74.24
22311;BME280;11323;49.610;11.016;2024-02-21T07:49:10;98817.88;;;8.80;73.73
22311;BME280;11323;49.610;11.016;2024-02-21T07:54:16;98811.00;;;8.90;73.92
22311;BME280;11323;49.610;11.016;2024-02-21T07:59:19;98821.44;;;9.05;73.98
22311;BME280;11323;49.610;11.016;2024-02-21T08:04:21;98816.44;;;9.15;73.88
22311;BME280;11323;49.610;11.016;2024-02-21T08:09:22;98802.84;;;9.17;73.36
22311;BME280;11323;49.610;11.016;2024-02-21T08:14:23;98796.41;;;9.24;73.29
22311;BME280;11323;49.610;11.016;2024-02-21T08:19:25;98767.56;;;9.33;73.34
22311;BME280;11323;49.610;11.016;2024-02-21T08:24:31;98772.56;;;9.47;73.25
22311;BME280;11323;49.610;11.016;2024-02-21T08:29:32;98777.06;;;9.53;73.38
22311;BME280;11323;49.610;11.016;2024-02-21T08:34:33;98784.94;;;9.66;72.56
22311;BME280;11323;49.610;11.016;2024-02-21T08:39:35;98793.31;;;9.76;73.02
22311;BME280;11323;49.610;11.016;2024-02-21T08:44:39;98787.41;;;9.92;72.79
22311;BME280;11323;49.610;11.016;2024-02-21T08:49:40;98783.16;;;10.03;71.92
22311;BME280;11323;49.610;11.016;2024-02-21T08:54:41;98765.47;;;10.02;72.54
22311;BME280;11323;49.610;11.016;2024-02-21T08:59:42;98760.22;;;10.14;72.00
22311;BME280;11323;49.610;11.016;2024-02-21T09:04:43;98762.75;;;10.27;72.18
22311;BME280;11323;49.610;11.016;2024-02-21T09:09:47;98762.31;;;10.30;71.96
22311;BME280;11323;49.610;11.016;2024-02-21T09:14:48;98772.09;;;10.36;71.45
22311;BME280;11323;49.610;11.016;2024-02-21T09:19:51;98758.03;;;10.40;71.91
22311;BME280;11323;49.610;11.016;2024-02-21T09:24:53;98757.06;;;10.53;71.63
22311;BME280;11323;49.610;11.016;2024-02-21T09:29:55;98748.56;;;10.56;70.91
22311;BME280;11323;49.610;11.016;2024-02-21T09:34:56;98758.63;;;10.60;71.31
22311;BME280;11323;49.610;11.016;2024-02-21T09:40:01;98756.44;;;10.69;71.01
22311;BME280;11323;49.610;11.016;2024-02-21T09:45:07;98749.72;;;10.78;70.89
22311;BME280;11323;49.610;11.016;2024-02-21T09:50:08;98734.78;;;10.82;70.12
22311;BME280;11323;49.610;11.016;2024-02-21T09:55:13;98731.69;;;10.85;70.39
22311;BME280;11323;49.610;11.016;2024-02-21T10:00:16;98725.72;;;10.83;70.26
22311;BME280;11323;49.610;11.016;2024-02-21T10:05:22;98721.53;;;10.87;70.16
22311;BME280;11323;49.610;11.016;2024-02-21T10:10:25;98708.13;;;10.87;70.61
22311;BME280;11323;49.610;11.016;2024-02-21T10:15:38;98699.41;;;10.80;69.99
22311;BME280;11323;49.610;11.016;2024-02-21T10:20:38;98691.72;;;10.95;70.11
22311;BME280;11323;49.610;11.016;2024-02-21T10:25:40;98682.97;;;11.00;69.73
22311;BME280;11323;49.610;11.016;2024-02-21T10:30:52;98684.50;;;11.07;69.36
22311;BME280;11323;49.610;11.016;2024-02-21T10:35:53;98672.41;;;11.16;69.61
22311;BME280;11323;49.610;11.016;2024-02-21T10:40:54;98673.09;;;11.23;69.33
22311;BME280;11323;49.610;11.016;2024-02-21T10:46:01;98663.69;;;11.32;69.21
22311;BME280;11323;49.610;11.016;2024-02-21T10:56:29;98648.63;;;11.31;69.10
22311;BME280;11323;49.610;11.016;2024-02-21T11:01:31;98640.69;;;11.36;68.94
22311;BME280;11323;49.610;11.016;2024-02-21T11:06:38;98627.41;;;11.41;68.67
22311;BME280;11323;49.610;11.016;2024-02-21T11:11:41;98621.09;;;11.47;68.23
22311;BME280;11323;49.610;11.016;2024-02-21T11:16:48;98611.03;;;11.54;68.54
22311;BME280;11323;49.610;11.016;2024-02-21T11:21:50;98591.81;;;11.57;68.16
22311;BME280;11323;49.610;11.016;2024-02-21T11:26:51;98583.25;;;11.60;67.84
22311;BME280;11323;49.610;11.016;2024-02-21T11:31:52;98572.44;;;11.67;67.66
22311;BME280;11323;49.610;11.016;2024-02-21T11:36:53;98565.31;;;11.72;67.63
22311;BME280;11323;49.610;11.016;2024-02-21T11:42:04;98557.47;;;11.83;67.60
22311;BME280;11323;49.610;11.016;2024-02-21T11:47:09;98552.75;;;11.90;67.38
22311;BME280;11323;49.610;11.016;2024-02-21T11:59:31;98535.25;;;11.87;67.62
22311;BME280;11323;49.610;11.016;2024-02-21T12:05:41;98518.66;;;11.90;66.78
22311;BME280;11323;49.610;11.016;2024-02-21T12:10:42;98506.63;;;11.93;66.89
22311;BME280;11323;49.610;11.016;2024-02-21T12:15:48;98499.97;;;11.95;66.31
22311;BME280;11323;49.610;11.016;2024-02-21T12:20:49;98493.19;;;11.93;66.58
22311;BME280;11323;49.610;11.016;2024-02-21T12:26:01;98483.72;;;12.02;66.40
22311;BME280;11323;49.610;11.016;2024-02-21T12:44:34;98450.66;;;12.01;65.53
22311;BME280;11323;49.610;11.016;2024-02-21T12:49:35;98421.53;;;11.93;66.27
22311;BME280;11323;49.610;11.016;2024-02-21T12:54:36;98423.50;;;11.98;66.60
22311;BME280;11323;49.610;11.016;2024-02-21T12:59:37;98409.16;;;12.09;65.92
22311;BME280;11323;49.610;11.016;2024-02-21T13:04:43;98408.91;;;12.10;65.32
22311;BME280;11323;49.610;11.016;2024-02-21T13:09:43;98396.81;;;12.08;65.58
22311;BME280;11323;49.610;11.016;2024-02-21T13:14:47;98378.56;;;12.10;65.20
22311;BME280;11323;49.610;11.016;2024-02-21T13:19:48;98368.47;;;12.17;65.47
22311;BME280;11323;49.610;11.016;2024-02-21T13:24:49;98351.78;;;12.15;65.26
22311;BME280;11323;49.610;11.016;2024-02-21T13:29:50;98355.28;;;12.15;64.75
22311;BME280;11323;49.610;11.016;2024-02-21T13:34:51;98340.63;;;12.23;64.79
22311;BME280;11323;49.610;11.016;2024-02-21T13:39:53;98338.50;;;12.25;64.60
22311;BME280;11323;49.610;11.016;2024-02-21T13:44:53;98322.41;;;12.25;64.57
22311;BME280;11323;49.610;11.016;2024-02-21T13:49:55;98311.00;;;12.18;65.14
22311;BME280;11323;49.610;11.016;2024-02-21T13:54:57;98314.25;;;12.20;65.06
22311;BME280;11323;49.610;11.016;2024-02-21T13:59:58;98300.59;;;12.21;64.56
22311;BME280;11323;49.610;11.016;2024-02-21T14:05:00;98300.25;;;12.18;64.71
22311;BME280;11323;49.610;11.016;2024-02-21T14:10:00;98293.28;;;12.17;63.90
22311;BME280;11323;49.610;11.016;2024-02-21T14:15:06;98289.50;;;12.18;64.06
22311;BME280;11323;49.610;11.016;2024-02-21T14:20:08;98287.63;;;12.18;64.26
22311;BME280;11323;49.610;11.016;2024-02-21T14:25:09;98285.22;;;12.17;64.60
22311;BME280;11323;49.610;11.016;2024-02-21T14:30:10;98273.09;;;12.14;64.28
22311;BME280;11323;49.610;11.016;2024-02-21T14:35:11;98266.88;;;12.14;64.20
22311;BME280;11323;49.610;11.016;2024-02-21T14:40:12;98255.03;;;12.10;63.45
22311;BME280;11323;49.610;11.016;2024-02-21T14:45:13;98261.97;;;12.06;64.19
22311;BME280;11323;49.610;11.016;2024-02-21T14:50:14;98259.75;;;12.03;63.20
22311;BME280;11323;49.610;11.016;2024-02-21T14:55:17;98236.16;;;12.05;64.17
22311;BME280;11323;49.610;11.016;2024-02-21T15:00:18;98232.91;;;12.03;63.47
22311;BME280;11323;49.610;11.016;2024-02-21T15:05:19;98235.59;;;12.03;63.50
22311;BME280;11323;49.610;11.016;2024-02-21T15:10:19;98234.00;;;12.02;63.42
22311;BME280;11323;49.610;11.016;2024-02-21T15:15:20;98230.66;;;11.95;63.11
22311;BME280;11323;49.610;11.016;2024-02-21T15:20:21;98218.78;;;11.91;63.62
22311;BME280;11323;49.610;11.016;2024-02-21T15:25:23;98211.22;;;11.88;63.15
22311;BME280;11323;49.610;11.016;2024-02-21T15:30:24;98191.63;;;11.87;63.54
22311;BME280;11323;49.610;11.016;2024-02-21T15:35:25;98178.47;;;11.86;63.28
22311;BME280;11323;49.610;11.016;2024-02-21T15:40:25;98172.53;;;11.84;63.26
22311;BME280;11323;49.610;11.016;2024-02-21T15:45:26;98171.66;;;11.78;63.23
22311;BME280;11323;49.610;11.016;2024-02-21T15:50:27;98164.31;;;11.73;63.58
22311;BME280;11323;49.610;11.016;2024-02-21T15:55:30;98163.03;;;11.76;63.63
22311;BME280;11323;49.610;11.016;2024-02-21T16:00:31;98165.09;;;11.69;63.77
22311;BME280;11323;49.610;11.016;2024-02-21T16:05:33;98147.59;;;11.66;63.38
22311;BME280;11323;49.610;11.016;2024-02-21T16:10:34;98124.97;;;11.62;63.20
22311;BME280;11323;49.610;11.016;2024-02-21T16:15:35;98125.44;;;11.59;63.14
22311;BME280;11323;49.610;11.016;2024-02-21T16:20:37;98109.88;;;11.56;63.41
22311;BME280;11323;49.610;11.016;2024-02-21T16:25:41;98101.75;;;11.51;63.59
22311;BME280;11323;49.610;11.016;2024-02-21T16:30:44;98088.81;;;11.48;63.36
22311;BME280;11323;49.610;11.016;2024-02-21T16:35:45;98086.09;;;11.43;63.15
22311;BME280;11323;49.610;11.016;2024-02-21T16:40:46;98074.72;;;11.36;63.60
22311;BME280;11323;49.610;11.016;2024-02-21T16:45:48;98064.22;;;11.35;63.27
22311;BME280;11323;49.610;11.016;2024-02-21T16:50:49;98056.38;;;11.28;63.18
22311;BME280;11323;49.610;11.016;2024-02-21T16:55:50;98049.31;;;11.22;63.19
22311;BME280;11323;49.610;11.016;2024-02-21T17:00:52;98019.28;;;11.04;63.56
22311;BME280;11323;49.610;11.016;2024-02-21T17:05:52;98001.13;;;10.89;64.09
22311;BME280;11323;49.610;11.016;2024-02-21T17:10:53;97997.88;;;10.87;63.81
22311;BME280;11323;49.610;11.016;2024-02-21T17:15:55;98011.84;;;10.89;64.14
22311;BME280;11323;49.610;11.016;2024-02-21T17:20:56;98010.41;;;10.81;64.16
22311;BME280;11323;49.610;11.016;2024-02-21T17:25:57;98009.13;;;10.67;64.64
22311;BME280;11323;49.610;11.016;2024-02-21T17:31:03;98005.56;;;10.62;64.63
22311;BME280;11323;49.610;11.016;2024-02-21T17:36:05;98000.66;;;10.59;64.62
22311;BME280;11323;49.610;11.016;2024-02-21T17:41:06;97987.22;;;10.54;65.04
22311;BME280;11323;49.610;11.016;2024-02-21T17:46:07;97986.91;;;10.50;64.77
22311;BME280;11323;49.610;11.016;2024-02-21T17:51:08;97977.66;;;10.41;64.47
22311;BME280;11323;49.610;11.016;2024-02-21T17:56:09;97990.88;;;10.48;65.05
22311;BME280;11323;49.610;11.016;2024-02-21T18:01:09;97980.09;;;10.43;64.60
22311;BME280;11323;49.610;11.016;2024-02-21T18:06:10;97980.47;;;10.35;65.04
22311;BME280;11323;49.610;11.016;2024-02-21T18:11:11;97958.50;;;10.33;64.72
22311;BME280;11323;49.610;11.016;2024-02-21T18:16:17;97961.88;;;10.28;65.40
22311;BME280;11323;49.610;11.016;2024-02-21T18:21:18;97950.03;;;10.24;65.11
22311;BME280;11323;49.610;11.016;2024-02-21T18:26:19;97943.66;;;10.25;65.44
22311;BME280;11323;49.610;11.016;2024-02-21T18:31:22;97924.09;;;10.25;65.70
22311;BME280;11323;49.610;11.016;2024-02-21T18:36:23;97933.81;;;10.31;65.31
22311;BME280;11323;49.610;11.016;2024-02-21T18:41:24;97931.56;;;10.39;64.65
22311;BME280;11323;49.610;11.016;2024-02-21T18:46:25;97909.78;;;10.36;64.90
22311;BME280;11323;49.610;11.016;2024-02-21T18:51:26;97906.06;;;10.37;64.93
22311;BME280;11323;49.610;11.016;2024-02-21T18:56:30;97908.25;;;10.40;65.18
22311;BME280;11323;49.610;11.016;2024-02-21T19:01:31;97916.38;;;10.45;65.18
22311;BME280;11323;49.610;11.016;2024-02-21T19:06:33;97917.41;;;10.44;65.18
22311;BME280;11323;49.610;11.016;2024-02-21T19:11:34;97908.81;;;10.42;64.68
22311;BME280;11323;49.610;11.016;2024-02-21T19:16:35;97888.94;;;10.38;65.28
22311;BME280;11323;49.610;11.016;2024-02-21T19:21:37;97896.00;;;10.44;64.72
22311;BME280;11323;49.610;11.016;2024-02-21T19:26:38;97878.63;;;10.46;64.48
22311;BME280;11323;49.610;11.016;2024-02-21T19:31:39;97879.31;;;10.37;64.74
22311;BME280;11323;49.610;11.016;2024-02-21T19:36:40;97885.53;;;10.42;64.74
22311;BME280;11323;49.610;11.016;2024-02-21T19:41:42;97873.44;;;10.40;65.04
22311;BME280;11323;49.610;11.016;2024-02-21T19:46:44;97865.25;;;10.46;64.65
22311;BME280;11323;49.610;11.016;2024-02-21T19:51:46;97849.34;;;10.40;64.66
22311;BME280;11323;49.610;11.016;2024-02-21T19:56:47;97842.94;;;10.41;65.04
22311;BME280;11323;49.610;11.016;2024-02-21T20:01:48;97834.97;;;10.46;64.86
22311;BME280;11323;49.610;11.016;2024-02-21T20:06:51;97815.66;;;10.44;64.75
22311;BME280;11323;49.610;11.016;2024-02-21T20:11:53;97817.50;;;10.43;64.72
22311;BME280;11323;49.610;11.016;2024-02-21T20:16:54;97799.53;;;10.39;64.49
22311;BME280;11323;49.610;11.016;2024-02-21T20:21:56;97794.50;;;10.42;64.78
22311;BME280;11323;49.610;11.016;2024-02-21T20:26:57;97803.94;;;10.50;64.46
22311;BME280;11323;49.610;11.016;2024-02-21T20:31:58;97778.16;;;10.44;64.27
22311;BME280;11323;49.610;11.016;2024-02-21T20:37:00;97768.00;;;10.46;64.67
22311;BME280;11323;49.610;11.016;2024-02-21T20:42:01;97768.78;;;10.41;64.18
22311;BME280;11323;49.610;11.016;2024-02-21T20:47:03;97764.84;;;10.49;64.52
22311;BME280;11323;49.610;11.016;2024-02-21T20:52:04;97756.88;;;10.54;64.30
22311;BME280;11323;49.610;11.016;2024-02-21T20:57:05;97742.63;;;10.48;64.65
22311;BME280;11323;49.610;11.016;2024-02-21T21:02:06;97734.84;;;10.47;64.17
22311;BME280;11323;49.610;11.016;2024-02-21T21:07:10;97727.34;;;10.49;64.59
22311;BME280;11323;49.610;11.016;2024-02-21T21:12:18;97720.44;;;10.53;64.04
22311;BME280;11323;49.610;11.016;2024-02-21T21:17:20;97703.81;;;10.51;63.79
22311;BME280;11323;49.610;11.016;2024-02-21T21:22:26;97692.47;;;10.44;64.39
22311;BME280;11323;49.610;11.016;2024-02-21T21:27:33;97704.31;;;10.48;64.65
22311;BME280;11323;49.610;11.016;2024-02-21T21:32:37;97685.38;;;10.54;64.10
22311;BME280;11323;49.610;11.016;2024-02-21T21:37:39;97671.34;;;10.47;63.96
22311;BME280;11323;49.610;11.016;2024-02-21T21:42:46;97651.19;;;10.40;64.28
22311;BME280;11323;49.610;11.016;2024-02-21T21:47:47;97672.22;;;10.53;64.35
22311;BME280;11323;49.610;11.016;2024-02-21T21:52:47;97672.28;;;10.58;64.07
22311;BME280;11323;49.610;11.016;2024-02-21T21:57:51;97651.56;;;10.48;63.60
22311;BME280;11323;49.610;11.016;2024-02-21T22:02:52;97657.72;;;10.49;64.19
22311;BME280;11323;49.610;11.016;2024-02-21T22:07:57;97648.06;;;10.48;63.62
22311;BME280;11323;49.610;11.016;2024-02-21T22:13:01;97662.09;;;10.55;63.83
22311;BME280;11323;49.610;11.016;2024-02-21T22:18:06;97626.63;;;10.48;64.03
22311;BME280;11323;49.610;11.016;2024-02-21T22:23:18;97624.78;;;10.48;63.87
22311;BME280;11323;49.610;11.016;2024-02-21T22:28:20;97627.19;;;10.50;63.71
22311;BME280;11323;49.610;11.016;2024-02-21T22:33:25;97608.16;;;10.46;63.75
22311;BME280;11323;49.610;11.016;2024-02-21T22:38:26;97612.25;;;10.54;63.91
22311;BME280;11323;49.610;11.016;2024-02-21T22:43:27;97618.72;;;10.58;63.62
22311;BME280;11323;49.610;11.016;2024-02-21T22:48:28;97606.75;;;10.39;64.00
22311;BME280;11323;49.610;11.016;2024-02-21T22:53:32;97608.97;;;10.47;64.10
22311;BME280;11323;49.610;11.016;2024-02-21T22:58:34;97613.88;;;10.55;63.57
22311;BME280;11323;49.610;11.016;2024-02-21T23:03:35;97597.81;;;10.55;64.15
22311;BME280;11323;49.610;11.016;2024-02-21T23:08:42;97586.16;;;10.44;64.05
22311;BME280;11323;49.610;11.016;2024-02-21T23:13:54;97584.88;;;10.47;64.23
22311;BME280;11323;49.610;11.016;2024-02-21T23:18:56;97567.97;;;10.46;64.63
22311;BME280;11323;49.610;11.016;2024-02-21T23:23:59;97565.56;;;10.45;64.73
22311;BME280;11323;49.610;11.016;2024-02-21T23:29:00;97559.66;;;10.43;64.65
22311;BME280;11323;49.610;11.016;2024-02-21T23:34:01;97550.81;;;10.42;64.96
22311;BME280;11323;49.610;11.016;2024-02-21T23:39:02;97546.72;;;10.35;64.95
22311;BME280;11323;49.610;11.016;2024-02-21T23:44:03;97525.28;;;10.30;65.61
22311;BME280;11323;49.610;11.016;2024-02-21T23:49:07;97515.06;;;10.27;65.48
22311;BME280;11323;49.610;11.016;2024-02-21T23:54:11;97509.66;;;10.22;65.36
22311;BME280;11323;49.610;11.016;2024-02-21T23:59:15;97502.19;;;10.24;65.75
